createdAt,value
2023-05-07T00:03:23.572Z,19.54
2023-05-07T00:08:26.399Z,19.44
2023-05-07T00:13:31.703Z,19.35
2023-05-07T00:18:34.421Z,19.39
2023-05-07T00:23:37.115Z,19.33
2023-05-07T00:28:41.768Z,19.37
2023-05-07T00:33:44.456Z,19.36
2023-05-07T00:38:47.214Z,19.21
2023-05-07T00:43:52.482Z,18.92
2023-05-07T00:48:55.471Z,19.20
2023-05-07T00:53:58.285Z,19.08
2023-05-07T00:59:02.686Z,19.06
2023-05-07T01:04:05.491Z,18.97
2023-05-07T01:09:10.093Z,19.00
2023-05-07T01:14:14.180Z,18.96
2023-05-07T01:19:19.184Z,19.12
2023-05-07T01:24:23.320Z,18.92
2023-05-07T01:29:26.231Z,18.84
2023-05-07T01:34:30.317Z,18.91
2023-05-07T01:39:34.459Z,18.89
2023-05-07T01:44:37.082Z,18.80
2023-05-07T01:49:40.037Z,18.87
2023-05-07T01:54:44.547Z,18.69
2023-05-07T01:59:47.268Z,18.73
2023-05-07T02:04:49.916Z,18.63
2023-05-07T02:09:56.254Z,18.73
2023-05-07T02:14:59.044Z,18.62
2023-05-07T02:20:01.999Z,18.47
2023-05-07T02:25:06.821Z,18.54
2023-05-07T02:30:10.436Z,18.54
2023-05-07T02:35:13.521Z,18.53
2023-05-07T02:40:17.618Z,18.55
2023-05-07T02:45:20.363Z,18.45
2023-05-07T02:50:24.747Z,18.37
2023-05-07T02:55:28.938Z,18.38
2023-05-07T03:00:31.661Z,18.36
2023-05-07T03:05:56.827Z,18.34
2023-05-07T03:11:01.027Z,18.31
2023-05-07T03:16:04.089Z,18.27
2023-05-07T03:21:06.895Z,18.17
2023-05-07T03:26:11.100Z,18.23
2023-05-07T03:31:13.874Z,18.20
2023-05-07T03:36:16.704Z,18.21
2023-05-07T03:41:21.244Z,18.11
2023-05-07T03:46:24.175Z,18.04
2023-05-07T03:51:27.630Z,17.92
2023-05-07T03:56:32.159Z,17.89
2023-05-07T04:01:35.800Z,17.93
2023-05-07T04:06:39.412Z,17.87
2023-05-07T04:11:43.660Z,17.82
2023-05-07T04:16:47.677Z,17.77
2023-05-07T04:21:50.791Z,17.77
2023-05-07T04:26:56.010Z,17.84
2023-05-07T04:31:59.834Z,17.80
2023-05-07T04:37:03.631Z,17.85
2023-05-07T04:42:09.786Z,17.84
2023-05-07T04:47:12.828Z,17.92
2023-05-07T04:52:16.263Z,17.89
2023-05-07T04:57:20.442Z,17.91
2023-05-07T05:02:24.005Z,17.85
2023-05-07T05:07:26.758Z,17.85
2023-05-07T05:12:31.437Z,17.88
2023-05-07T05:17:36.098Z,18.03
2023-05-07T05:22:40.181Z,18.04
2023-05-07T05:27:45.137Z,18.04
2023-05-07T05:32:48.476Z,18.14
2023-05-07T05:37:51.366Z,18.22
2023-05-07T05:42:56.925Z,18.22
2023-05-07T05:48:00.045Z,18.28
2023-05-07T05:53:03.276Z,18.34
2023-05-07T05:58:07.484Z,18.34
2023-05-07T06:03:14.620Z,18.40
2023-05-07T06:08:19.555Z,18.31
2023-05-07T06:13:26.684Z,18.41
2023-05-07T06:18:29.841Z,18.46
2023-05-07T06:23:34.275Z,18.40
2023-05-07T06:28:39.449Z,18.34
2023-05-07T06:33:46.873Z,18.48
2023-05-07T06:38:50.679Z,18.39
2023-05-07T06:43:55.109Z,18.68
2023-05-07T06:49:16.129Z,18.74
2023-05-07T06:54:19.591Z,18.58
2023-05-07T06:59:25.495Z,18.84
2023-05-07T07:04:29.314Z,18.86
2023-05-07T07:09:38.556Z,18.82
2023-05-07T07:14:44.582Z,18.97
2023-05-07T07:19:48.950Z,18.95
2023-05-07T08:09:00.945Z,19.61
2023-05-07T08:14:04.501Z,19.47
2023-05-07T08:19:07.153Z,19.39
2023-05-07T08:24:12.520Z,19.57
2023-05-07T08:29:15.217Z,19.61
2023-05-07T08:34:18.399Z,19.70
2023-05-07T08:39:24.572Z,19.67
2023-05-07T08:44:30.775Z,19.73
2023-05-07T08:49:35.713Z,19.77
2023-05-07T08:54:41.480Z,19.88
2023-05-07T08:59:47.716Z,19.88
2023-05-07T09:04:51.834Z,19.85
2023-05-07T09:09:57.967Z,19.86
2023-05-07T09:15:01.794Z,19.95
2023-05-07T09:20:07.909Z,19.99
2023-05-07T09:25:14.619Z,20.01
2023-05-07T09:30:18.671Z,20.05
2023-05-07T09:35:22.706Z,20.06
2023-05-07T09:40:32.964Z,20.03
2023-05-07T09:45:40.982Z,20.14
2023-05-07T09:50:50.896Z,20.17
2023-05-07T09:55:58.799Z,20.19
2023-05-07T10:01:02.083Z,20.16
2023-05-07T10:06:06.272Z,20.16
2023-05-07T10:11:11.661Z,20.10
2023-05-07T10:16:15.456Z,20.16
2023-05-07T10:21:25.845Z,20.17
2023-05-07T10:26:36.164Z,20.25
2023-05-07T10:31:51.550Z,20.26
2023-05-07T10:36:56.188Z,20.44
2023-05-07T10:42:09.861Z,20.55
2023-05-07T10:47:14.347Z,20.40
2023-05-07T10:52:22.330Z,20.42
2023-05-07T10:57:39.859Z,20.44
2023-05-07T11:03:15.766Z,20.41
2023-05-07T11:08:57.854Z,20.39
2023-05-07T11:14:09.884Z,20.44
2023-05-07T11:19:52.854Z,20.41
2023-05-07T11:25:19.698Z,20.54
2023-05-07T11:30:27.669Z,20.36
2023-05-07T11:35:30.952Z,20.43
2023-05-07T11:40:34.037Z,20.47
2023-05-07T11:45:39.064Z,20.50
2023-05-07T11:50:52.926Z,20.50
2023-05-07T11:55:55.786Z,20.50
2023-05-07T12:01:00.038Z,20.56
2023-05-07T12:06:02.819Z,20.56
2023-05-07T12:11:05.804Z,20.61
2023-05-07T12:16:10.353Z,20.66
2023-05-07T12:21:13.118Z,20.62
2023-05-07T12:26:15.934Z,20.59
2023-05-07T12:31:20.927Z,20.60
2023-05-07T12:36:23.804Z,20.65
2023-05-07T12:41:30.140Z,20.68
2023-05-07T12:46:34.363Z,20.76
2023-05-07T12:51:37.581Z,20.73
2023-05-07T12:56:41.561Z,20.74
2023-05-07T13:01:46.328Z,20.70
2023-05-07T13:06:49.088Z,20.66
2023-05-07T13:11:51.828Z,20.57
2023-05-07T13:16:55.914Z,20.60
2023-05-07T13:21:58.713Z,20.60
2023-05-07T13:27:01.577Z,20.75
2023-05-07T13:32:06.339Z,20.58
2023-05-07T13:37:11.355Z,20.79
2023-05-07T13:42:14.393Z,20.77
2023-05-07T13:47:18.545Z,20.84
2023-05-07T13:52:21.405Z,20.74
2023-05-07T13:57:24.160Z,20.82
2023-05-07T14:02:28.382Z,20.81
2023-05-07T14:07:31.227Z,20.72
2023-05-07T14:12:34.422Z,20.77
2023-05-07T14:17:39.253Z,20.72
2023-05-07T14:22:42.083Z,20.77
2023-05-07T14:27:44.765Z,20.77
2023-05-07T14:32:48.924Z,20.70
2023-05-07T14:37:51.755Z,20.76
2023-05-07T14:42:54.425Z,20.81
2023-05-07T14:47:58.576Z,20.71
2023-05-07T14:53:01.303Z,20.68
2023-05-07T14:58:04.015Z,20.74
2023-05-07T15:03:09.653Z,20.77
2023-05-07T15:08:12.460Z,20.82
2023-05-07T15:13:16.127Z,20.83
2023-05-07T15:19:06.506Z,20.75
2023-05-07T15:24:11.142Z,21.00
2023-05-07T15:29:13.852Z,21.17
2023-05-07T15:34:17.600Z,21.24
2023-05-07T15:39:24.252Z,21.30
2023-05-07T15:44:29.526Z,21.37
2023-05-07T15:49:32.441Z,21.46
2023-05-07T15:54:36.498Z,21.54
2023-05-07T15:59:39.269Z,21.58
2023-05-07T16:04:42.083Z,21.53
2023-05-07T16:09:46.709Z,21.44
2023-05-07T16:14:51.286Z,21.53
2023-05-07T16:19:53.966Z,21.59
2023-05-07T16:24:58.036Z,21.60
2023-05-07T16:30:00.830Z,21.59
2023-05-07T16:35:04.176Z,21.56
2023-05-07T16:40:09.400Z,21.55
2023-05-07T16:45:12.750Z,21.57
2023-05-07T16:50:15.801Z,21.58
2023-05-07T16:55:19.995Z,21.60
2023-05-07T17:00:23.129Z,21.66
2023-05-07T17:05:25.932Z,21.67
2023-05-07T17:10:30.112Z,21.72
2023-05-07T17:15:32.793Z,21.76
2023-05-07T17:20:35.940Z,21.78
2023-05-07T17:25:45.324Z,21.81
2023-05-07T17:30:48.601Z,21.83
2023-05-07T17:35:54.576Z,21.84
2023-05-07T17:40:59.532Z,21.84
2023-05-07T17:46:03.193Z,21.83
2023-05-07T17:51:06.169Z,21.82
2023-05-07T17:56:10.249Z,21.77
2023-05-07T18:01:13.063Z,21.73
2023-05-07T18:06:44.220Z,21.69
2023-05-07T18:11:48.337Z,21.63
2023-05-07T18:16:51.110Z,21.61
2023-05-07T18:21:58.202Z,21.58
2023-05-07T18:27:02.345Z,21.55
2023-05-07T18:32:05.298Z,21.53
2023-05-07T18:37:08.260Z,21.49
2023-05-07T18:42:13.068Z,21.47
2023-05-07T18:47:15.806Z,21.45
2023-05-07T18:52:21.109Z,21.41
2023-05-07T18:57:25.598Z,21.37
2023-05-07T19:02:28.394Z,21.36
2023-05-07T19:07:31.135Z,21.32
2023-05-07T19:12:35.252Z,21.31
2023-05-07T19:17:38.026Z,21.26
2023-05-07T19:22:40.884Z,21.23
2023-05-07T19:27:45.045Z,21.22
2023-05-07T19:32:48.096Z,21.20
2023-05-07T19:37:50.961Z,21.16
2023-05-07T19:42:55.093Z,21.12
2023-05-07T19:47:57.874Z,21.12
2023-05-07T19:53:00.693Z,21.09
2023-05-07T19:58:04.874Z,21.03
2023-05-07T20:03:07.723Z,21.06
2023-05-07T20:08:10.585Z,21.05
2023-05-07T20:13:14.718Z,21.01
2023-05-07T20:18:17.536Z,21.01
2023-05-07T20:23:20.312Z,20.99
2023-05-07T20:28:24.408Z,20.97
2023-05-07T20:33:27.230Z,20.92
2023-05-07T20:38:33.752Z,20.92
2023-05-07T20:43:38.557Z,20.89
2023-05-07T20:48:41.393Z,20.88
2023-05-07T20:53:50.544Z,20.88
2023-05-07T20:58:54.718Z,20.84
2023-05-07T21:03:57.457Z,20.83
2023-05-07T21:09:10.743Z,20.81
2023-05-07T21:14:14.821Z,20.79
2023-05-07T21:19:17.672Z,20.76
2023-05-07T21:24:20.347Z,20.77
2023-05-07T21:29:24.639Z,20.80
2023-05-07T21:35:02.806Z,20.75
2023-05-07T21:45:35.536Z,20.70
2023-05-07T21:50:38.424Z,20.71
2023-05-07T21:55:41.164Z,20.70
2023-05-07T22:00:45.221Z,20.67
2023-05-07T22:05:49.741Z,20.65
2023-05-07T22:10:52.617Z,20.62
2023-05-07T22:15:58.343Z,20.61
2023-05-07T22:21:01.449Z,20.60
2023-05-07T22:26:10.957Z,20.56
2023-05-07T22:31:15.064Z,20.44
2023-05-07T22:36:17.698Z,20.53
2023-05-07T22:41:20.967Z,20.52
2023-05-07T22:46:25.145Z,20.50
2023-05-07T22:51:28.346Z,20.51
2023-05-07T22:56:31.029Z,20.48
2023-05-07T23:01:35.137Z,20.46
2023-05-07T23:06:37.885Z,20.47
2023-05-07T23:11:41.502Z,20.45
2023-05-07T23:16:45.547Z,20.43
2023-05-07T23:21:48.304Z,20.43
2023-05-07T23:26:50.972Z,20.40
2023-05-07T23:31:55.004Z,20.38
2023-05-07T23:36:57.654Z,20.37
2023-05-07T23:42:00.387Z,20.35
2023-05-07T23:47:04.386Z,20.32
2023-05-07T23:52:07.055Z,20.28
2023-05-07T23:57:09.758Z,20.27
